createdAt,value
2023-05-10T00:04:48.400Z,13.02
2023-05-10T00:09:53.022Z,13.06
2023-05-10T00:14:56.009Z,13.04
2023-05-10T00:19:59.090Z,13.03
2023-05-10T00:25:03.923Z,12.90
2023-05-10T00:30:08.366Z,13.03
2023-05-10T00:35:11.899Z,13.12
2023-05-10T00:40:16.942Z,13.15
2023-05-10T00:45:26.171Z,13.15
2023-05-10T00:50:29.690Z,13.18
2023-05-10T00:55:34.133Z,13.12
2023-05-10T01:00:39.660Z,13.18
2023-05-10T01:05:42.697Z,13.22
2023-05-10T01:10:50.163Z,13.23
2023-05-10T01:15:53.396Z,13.23
2023-05-10T01:21:06.504Z,13.26
2023-05-10T01:26:54.369Z,13.25
2023-05-10T01:32:23.736Z,13.25
2023-05-10T01:37:36.047Z,13.29
2023-05-10T01:42:45.239Z,13.26
2023-05-10T01:47:53.782Z,13.23
2023-05-10T01:52:59.776Z,13.24
2023-05-10T01:58:06.796Z,13.24
2023-05-10T02:03:13.197Z,13.22
2023-05-10T02:08:18.498Z,13.18
2023-05-10T02:13:22.163Z,13.24
2023-05-10T02:18:29.206Z,13.28
2023-05-10T02:23:33.718Z,13.27
2023-05-10T02:28:39.125Z,13.25
2023-05-10T02:33:46.521Z,13.27
2023-05-10T02:38:51.027Z,13.14
2023-05-10T02:43:58.102Z,13.29
2023-05-10T02:49:02.720Z,13.25
2023-05-10T02:54:12.980Z,13.30
2023-05-10T02:59:16.327Z,13.31
2023-05-10T03:04:20.987Z,13.36
2023-05-10T03:09:24.483Z,13.33
2023-05-10T03:14:44.673Z,13.28
2023-05-10T03:19:55.250Z,13.34
2023-05-10T03:25:00.047Z,13.33
2023-05-10T03:30:07.773Z,13.34
2023-05-10T03:35:14.175Z,13.29
2023-05-10T03:40:18.227Z,13.27
2023-05-10T03:45:21.866Z,13.33
2023-05-10T03:50:27.276Z,13.24
2023-05-10T03:55:30.514Z,13.13
2023-05-10T04:00:34.049Z,13.18
2023-05-10T04:05:39.386Z,13.20
2023-05-10T04:10:43.026Z,13.14
2023-05-10T04:15:46.111Z,13.21
2023-05-10T04:20:50.911Z,13.12
2023-05-10T04:25:53.849Z,13.18
2023-05-10T04:31:03.486Z,13.09
2023-05-10T04:36:08.428Z,13.12
2023-05-10T04:41:12.728Z,13.04
2023-05-10T04:46:15.758Z,13.00
2023-05-10T04:51:20.304Z,13.00
2023-05-10T04:56:23.533Z,13.01
2023-05-10T05:01:26.611Z,13.03
2023-05-10T05:06:31.263Z,13.06
2023-05-10T05:11:34.753Z,13.08
2023-05-10T05:16:37.864Z,13.14
2023-05-10T05:21:42.231Z,13.07
2023-05-10T05:26:45.229Z,13.08
2023-05-10T05:31:48.653Z,13.04
2023-05-10T05:36:53.132Z,12.90
2023-05-10T05:41:56.099Z,12.89
2023-05-10T05:46:59.134Z,12.99
2023-05-10T05:52:04.209Z,13.29
2023-05-10T05:57:07.649Z,13.49
2023-05-10T06:02:11.046Z,13.50
2023-05-10T06:07:15.539Z,13.44
2023-05-10T06:12:18.830Z,13.31
2023-05-10T06:17:22.814Z,13.34
2023-05-10T06:22:27.596Z,13.40
2023-05-10T06:27:30.775Z,13.39
2023-05-10T06:32:34.046Z,13.15
2023-05-10T06:37:38.362Z,13.03
2023-05-10T06:42:41.510Z,12.85
2023-05-10T06:47:44.650Z,12.88
2023-05-10T06:52:50.596Z,13.05
2023-05-10T06:57:54.963Z,13.54
2023-05-10T07:02:58.037Z,13.64
2023-05-10T07:08:02.740Z,13.75
2023-05-10T07:13:05.872Z,14.59
2023-05-10T07:18:09.128Z,15.29
2023-05-10T07:23:13.890Z,15.52
2023-05-10T07:28:18.184Z,15.37
2023-05-10T07:33:21.419Z,15.54
2023-05-10T07:38:26.176Z,15.39
2023-05-10T07:43:29.118Z,15.14
2023-05-10T07:48:32.421Z,15.13
2023-05-10T07:53:36.836Z,15.11
2023-05-10T07:58:40.000Z,15.07
2023-05-10T08:03:43.172Z,15.05
2023-05-10T08:08:50.490Z,14.95
2023-05-10T08:13:53.929Z,15.12
2023-05-10T08:18:57.392Z,15.22
2023-05-10T08:24:02.070Z,15.30
2023-05-10T08:29:05.250Z,15.22
2023-05-10T08:34:08.318Z,15.25
2023-05-10T08:39:22.841Z,15.37
2023-05-10T08:44:36.297Z,15.78
2023-05-10T08:49:39.967Z,16.71
2023-05-10T08:54:44.940Z,17.67
2023-05-10T08:59:48.540Z,18.19
2023-05-10T09:04:51.962Z,18.28
2023-05-10T09:09:56.966Z,18.04
2023-05-10T09:15:01.843Z,18.27
2023-05-10T09:20:06.750Z,18.28
2023-05-10T09:25:13.967Z,17.76
2023-05-10T09:30:19.038Z,17.50
2023-05-10T09:35:25.076Z,17.08
2023-05-10T09:40:32.114Z,16.91
2023-05-10T09:45:38.241Z,17.73
2023-05-10T09:50:42.752Z,17.79
2023-05-10T09:55:50.592Z,17.59
2023-05-10T10:00:54.861Z,17.40
2023-05-10T10:05:58.060Z,17.89
2023-05-10T10:11:03.285Z,18.48
2023-05-10T10:16:07.034Z,17.81
2023-05-10T10:21:10.510Z,16.50
2023-05-10T10:26:19.833Z,15.97
2023-05-10T10:31:31.313Z,15.83
2023-05-10T10:36:35.885Z,15.63
2023-05-10T10:41:44.999Z,15.46
2023-05-10T10:47:10.302Z,15.17
2023-05-10T10:52:22.566Z,15.16
2023-05-10T10:57:28.479Z,15.14
2023-05-10T11:02:47.006Z,15.13
2023-05-10T11:07:57.558Z,15.15
2023-05-10T11:13:03.475Z,15.39
2023-05-10T11:18:19.867Z,15.14
2023-05-10T11:23:23.889Z,15.31
2023-05-10T11:28:29.370Z,15.33
2023-05-10T11:33:32.587Z,15.02
2023-05-10T11:38:35.616Z,14.76
2023-05-10T11:43:41.484Z,14.46
2023-05-10T11:48:44.866Z,14.48
2023-05-10T11:53:47.934Z,14.52
2023-05-10T11:58:58.508Z,14.31
2023-05-10T12:04:02.564Z,13.96
2023-05-10T12:09:11.250Z,13.78
2023-05-10T12:14:16.848Z,13.90
2023-05-10T12:19:24.372Z,14.00
2023-05-10T12:24:27.512Z,14.06
2023-05-10T12:29:32.722Z,14.09
2023-05-10T12:34:38.290Z,14.19
2023-05-10T12:39:42.367Z,14.48
2023-05-10T12:44:46.762Z,14.67
2023-05-10T12:49:52.551Z,14.57
2023-05-10T12:54:55.799Z,14.82
2023-05-10T13:00:00.292Z,15.06
2023-05-10T13:05:03.803Z,15.66
2023-05-10T13:10:08.181Z,15.80
2023-05-10T13:15:12.913Z,16.40
2023-05-10T13:20:16.824Z,16.50
2023-05-10T13:25:20.165Z,16.48
2023-05-10T13:30:24.894Z,16.63
2023-05-10T13:35:28.060Z,17.01
2023-05-10T13:40:31.021Z,17.27
2023-05-10T13:45:35.410Z,16.95
2023-05-10T13:50:38.357Z,16.98
2023-05-10T13:55:41.342Z,17.32
2023-05-10T14:00:46.152Z,17.16
2023-05-10T14:05:51.729Z,17.01
2023-05-10T14:10:54.921Z,16.99
2023-05-10T14:16:01.428Z,17.01
2023-05-10T14:21:05.738Z,17.03
2023-05-10T14:26:08.989Z,17.40
2023-05-10T14:31:13.588Z,17.57
2023-05-10T14:36:16.936Z,17.78
2023-05-10T14:41:24.057Z,17.68
2023-05-10T14:46:28.847Z,17.52
2023-05-10T14:51:32.886Z,17.48
2023-05-10T14:56:35.998Z,17.58
2023-05-10T15:01:43.301Z,17.33
2023-05-10T15:06:47.030Z,17.75
2023-05-10T15:11:50.008Z,18.03
2023-05-10T15:16:54.418Z,18.11
2023-05-10T15:21:57.587Z,18.46
2023-05-10T15:27:01.116Z,18.58
2023-05-10T15:32:05.986Z,18.14
2023-05-10T15:37:09.188Z,17.53
2023-05-10T15:42:13.087Z,17.15
2023-05-10T15:47:18.017Z,16.88
2023-05-10T15:52:22.138Z,16.66
2023-05-10T15:57:25.321Z,16.58
2023-05-10T16:02:29.843Z,16.59
2023-05-10T16:07:33.088Z,16.62
2023-05-10T16:12:36.244Z,16.57
2023-05-10T16:17:41.537Z,16.63
2023-05-10T16:22:45.275Z,16.71
2023-05-10T16:27:50.725Z,16.54
2023-05-10T16:32:55.412Z,16.41
2023-05-10T16:37:58.735Z,16.51
2023-05-10T16:43:01.843Z,16.19
2023-05-10T16:48:07.139Z,16.17
2023-05-10T16:53:11.739Z,15.93
2023-05-10T16:58:18.310Z,15.94
2023-05-10T17:03:22.950Z,15.96
2023-05-10T17:08:26.214Z,15.45
2023-05-10T17:13:29.672Z,15.86
2023-05-10T17:18:34.081Z,15.68
2023-05-10T17:23:37.334Z,15.66
2023-05-10T17:28:41.771Z,15.81
2023-05-10T17:33:46.556Z,15.84
2023-05-10T17:38:50.608Z,15.72
2023-05-10T17:43:56.217Z,15.59
2023-05-10T17:49:00.688Z,15.61
2023-05-10T17:54:03.731Z,15.57
2023-05-10T17:59:06.759Z,15.45
2023-05-10T18:04:11.774Z,15.34
2023-05-10T18:09:16.338Z,15.16
2023-05-10T18:14:28.508Z,15.11
2023-05-10T18:19:44.255Z,15.00
2023-05-10T18:24:48.065Z,14.71
2023-05-10T18:29:52.257Z,14.53
2023-05-10T18:34:56.809Z,14.36
2023-05-10T18:39:59.930Z,14.35
2023-05-10T18:45:03.572Z,14.17
2023-05-10T18:50:09.875Z,14.03
2023-05-10T18:55:13.005Z,14.19
2023-05-10T19:00:16.507Z,14.23
2023-05-10T19:05:21.090Z,14.14
2023-05-10T19:10:24.861Z,13.99
2023-05-10T19:15:28.235Z,13.95
2023-05-10T19:20:33.069Z,13.73
2023-05-10T19:25:36.307Z,13.73
2023-05-10T19:30:39.615Z,13.70
2023-05-10T19:35:44.028Z,13.72
2023-05-10T19:40:47.396Z,13.65
2023-05-10T19:45:50.796Z,13.46
2023-05-10T19:51:00.614Z,13.56
2023-05-10T19:56:04.590Z,13.56
2023-05-10T20:01:08.336Z,13.54
2023-05-10T20:06:13.220Z,13.53
2023-05-10T20:11:16.744Z,13.56
2023-05-10T20:16:20.117Z,13.62
2023-05-10T20:21:26.533Z,13.66
2023-05-10T20:26:29.825Z,13.67
2023-05-10T20:31:35.594Z,13.69
2023-05-10T20:36:39.968Z,13.72
2023-05-10T20:41:43.752Z,13.70
2023-05-10T20:46:47.081Z,13.69
2023-05-10T20:51:51.508Z,13.62
2023-05-10T20:56:54.690Z,13.64
2023-05-10T21:01:58.196Z,13.57
2023-05-10T21:07:08.535Z,13.47
2023-05-10T21:12:17.840Z,13.49
2023-05-10T21:17:21.039Z,13.49
2023-05-10T21:22:25.486Z,13.52
2023-05-10T21:27:30.576Z,13.56
2023-05-10T21:32:33.647Z,13.64
2023-05-10T21:37:38.109Z,13.72
2023-05-10T21:42:41.240Z,13.72
2023-05-10T21:47:44.647Z,13.78
2023-05-10T21:52:49.193Z,13.69
2023-05-10T21:57:52.597Z,13.73
2023-05-10T22:02:55.678Z,13.75
2023-05-10T22:08:00.034Z,13.73
2023-05-10T22:13:03.294Z,13.67
2023-05-10T22:18:06.501Z,13.62
2023-05-10T22:23:11.072Z,13.40
2023-05-10T22:28:14.002Z,13.47
2023-05-10T22:33:17.282Z,13.59
2023-05-10T22:38:21.725Z,13.60
2023-05-10T22:43:24.812Z,13.60
2023-05-10T22:48:29.607Z,13.60
2023-05-10T22:53:33.892Z,13.48
2023-05-10T22:58:37.011Z,13.45
2023-05-10T23:03:40.211Z,13.48
2023-05-10T23:08:44.539Z,13.48
2023-05-10T23:13:47.608Z,13.46
2023-05-10T23:18:53.233Z,13.46
2023-05-10T23:23:57.742Z,13.44
2023-05-10T23:29:01.811Z,13.29
2023-05-10T23:34:05.162Z,13.32
2023-05-10T23:39:09.693Z,13.32
2023-05-10T23:44:13.123Z,13.30
2023-05-10T23:49:17.411Z,13.23
2023-05-10T23:54:21.744Z,13.32
2023-05-10T23:59:24.818Z,13.31
